createdAt,value
2018-12-04T02:40:57.508Z,5.97
2018-12-04T02:43:25.456Z,5.70
2018-12-04T02:45:53.214Z,4.80
2018-12-04T02:48:21.056Z,6.07
2018-12-04T02:50:48.689Z,5.67
2018-12-04T02:53:16.416Z,4.47
2018-12-04T02:55:44.111Z,5.30
2018-12-04T02:58:11.828Z,7.27
2018-12-04T03:00:39.432Z,5.67
2018-12-04T03:03:06.976Z,4.33
2018-12-04T03:05:34.604Z,6.90
2018-12-04T03:08:02.332Z,4.37
2018-12-04T03:10:32.631Z,6.57
2018-12-04T03:13:00.413Z,7.77
2018-12-04T03:15:28.281Z,6.43
2018-12-04T03:17:56.116Z,4.50
2018-12-04T03:20:23.930Z,7.33
2018-12-04T03:22:51.840Z,6.37
2018-12-04T03:25:19.668Z,5.40
2018-12-04T03:27:47.632Z,6.07
2018-12-04T03:30:15.595Z,7.10
2018-12-04T03:32:43.317Z,5.70
2018-12-04T03:35:11.040Z,5.20
2018-12-04T03:37:38.713Z,5.70
2018-12-04T03:40:07.332Z,5.37
2018-12-04T03:42:35.079Z,7.63
2018-12-04T03:45:02.860Z,5.00
2018-12-04T03:47:30.586Z,4.20
2018-12-04T03:49:58.386Z,3.73
2018-12-04T03:52:26.068Z,3.80
2018-12-04T03:54:53.906Z,5.43
2018-12-04T03:57:21.588Z,4.90
2018-12-04T03:59:50.404Z,4.80
2018-12-04T04:02:19.387Z,3.67
2018-12-04T04:04:47.202Z,6.07
2018-12-04T04:07:14.936Z,4.97
2018-12-04T04:09:42.729Z,8.50
2018-12-04T04:12:10.556Z,4.73
2018-12-04T04:14:38.508Z,4.03
2018-12-04T04:17:06.234Z,3.67
2018-12-04T04:19:34.312Z,5.93
2018-12-04T04:22:01.977Z,5.50
2018-12-04T04:24:29.759Z,4.80
2018-12-04T04:26:57.475Z,6.43
2018-12-04T04:29:25.356Z,5.70
2018-12-04T04:31:53.199Z,8.10
2018-12-04T04:34:20.896Z,4.70
2018-12-04T04:36:48.709Z,5.80
2018-12-04T04:39:16.523Z,7.47
2018-12-04T04:41:44.208Z,6.17
2018-12-04T04:44:11.847Z,4.13
2018-12-04T04:46:39.537Z,4.00
2018-12-04T04:49:07.323Z,6.20
2018-12-04T04:51:35.066Z,4.43
2018-12-04T04:54:02.707Z,5.70
2018-12-04T04:56:30.323Z,4.27
2018-12-04T04:58:57.992Z,2.73
2018-12-04T05:01:25.695Z,4.53
2018-12-04T05:03:53.407Z,4.10
2018-12-04T05:06:21.154Z,2.17
2018-12-04T05:08:48.832Z,3.03
2018-12-04T05:11:16.528Z,4.30
2018-12-04T05:13:44.201Z,2.63
2018-12-04T05:16:11.853Z,2.33
2018-12-04T05:18:39.634Z,3.37
2018-12-04T05:21:07.258Z,4.57
2018-12-04T05:23:39.997Z,1.40
2018-12-04T05:26:07.677Z,1.73
2018-12-04T05:28:35.290Z,1.93
2018-12-04T05:31:02.958Z,1.53
2018-12-04T05:33:30.506Z,1.80
2018-12-04T05:35:58.162Z,2.70
2018-12-04T05:38:25.849Z,1.80
2018-12-04T05:40:53.845Z,1.43
2018-12-04T05:43:21.587Z,1.30
2018-12-04T05:45:49.147Z,2.77
2018-12-04T05:48:16.727Z,1.20
2018-12-04T05:50:44.344Z,2.80
2018-12-04T05:53:17.649Z,3.00
2018-12-04T05:55:45.164Z,2.63
2018-12-04T05:58:12.836Z,1.77
2018-12-04T06:00:40.355Z,3.73
2018-12-04T06:03:07.993Z,0.80
2018-12-04T06:05:35.597Z,2.37
2018-12-04T06:08:03.204Z,2.57
2018-12-04T06:10:31.128Z,2.20
2018-12-04T06:12:58.796Z,1.73
2018-12-04T06:15:26.611Z,3.80
2018-12-04T06:17:54.417Z,4.20
2018-12-04T06:20:22.022Z,3.10
2018-12-04T06:22:50.046Z,3.47
2018-12-04T06:25:18.049Z,1.23
2018-12-04T06:27:45.924Z,2.40
2018-12-04T06:30:13.700Z,4.37
2018-12-04T06:32:41.408Z,3.83
2018-12-04T06:35:09.334Z,3.00
2018-12-04T06:37:37.185Z,1.33
2018-12-04T06:40:05.038Z,5.83
2018-12-04T06:42:32.736Z,3.27
2018-12-04T06:45:00.513Z,1.50
2018-12-04T06:47:28.356Z,1.20
2018-12-04T06:49:56.221Z,1.43
2018-12-04T06:52:24.093Z,2.10
2018-12-04T06:54:51.870Z,3.87
2018-12-04T06:57:19.874Z,2.70
2018-12-04T06:59:47.730Z,3.27
2018-12-04T07:02:15.544Z,3.87
2018-12-04T07:04:44.057Z,1.33
2018-12-04T07:07:11.991Z,1.50
2018-12-04T07:09:39.695Z,2.07
2018-12-04T07:12:07.965Z,5.93
2018-12-04T07:14:35.699Z,3.43
2018-12-04T07:17:03.553Z,2.23
2018-12-04T07:19:31.277Z,1.23
2018-12-04T07:21:59.215Z,1.80
2018-12-04T07:24:27.115Z,1.90
2018-12-04T07:26:54.851Z,3.30
2018-12-04T07:29:22.757Z,2.60
2018-12-04T07:31:50.582Z,3.13
2018-12-04T07:34:18.335Z,1.73
2018-12-04T07:36:46.234Z,3.43
2018-12-04T07:39:19.056Z,0.90
2018-12-04T07:41:47.188Z,4.50
2018-12-04T07:44:14.848Z,2.47
2018-12-04T07:46:42.512Z,2.53
2018-12-04T07:49:10.342Z,1.10
2018-12-04T07:51:38.119Z,1.20
2018-12-04T07:54:06.012Z,1.90
2018-12-04T07:56:33.768Z,1.53
2018-12-04T07:59:01.516Z,2.63
2018-12-04T08:01:29.188Z,1.73
2018-12-04T08:03:56.911Z,2.83
2018-12-04T08:06:24.489Z,4.13
2018-12-04T08:08:52.455Z,6.97
2018-12-04T08:11:20.418Z,4.10
2018-12-04T08:13:48.329Z,3.90
2018-12-04T08:16:16.091Z,4.37
2018-12-04T08:18:44.028Z,2.60
2018-12-04T08:21:11.781Z,3.17
2018-12-04T08:23:41.572Z,1.60
2018-12-04T08:26:09.368Z,1.77
2018-12-04T08:28:37.048Z,5.20
2018-12-04T08:31:08.787Z,2.77
2018-12-04T08:33:36.478Z,2.63
2018-12-04T08:36:04.087Z,5.10
2018-12-04T08:38:31.914Z,3.17
2018-12-04T08:41:00.755Z,2.47
2018-12-04T08:43:28.562Z,3.20
2018-12-04T08:45:56.318Z,2.57
2018-12-04T08:48:23.692Z,2.93
2018-12-04T08:50:51.071Z,3.27
2018-12-04T08:53:18.454Z,2.53
2018-12-04T08:55:45.946Z,4.80
2018-12-04T08:58:13.326Z,6.27
2018-12-04T09:00:40.682Z,4.93
2018-12-04T09:03:08.074Z,3.40
2018-12-04T09:05:35.470Z,3.40
2018-12-04T09:08:04.030Z,3.80
2018-12-04T09:10:31.850Z,2.80
2018-12-04T09:12:59.224Z,4.23
2018-12-04T09:15:26.716Z,1.90
2018-12-04T09:17:54.278Z,2.73
2018-12-04T09:20:21.742Z,3.20
2018-12-04T09:22:49.545Z,3.07
2018-12-04T09:25:17.032Z,3.60
2018-12-04T09:27:44.580Z,2.17
2018-12-04T09:30:12.362Z,3.40
2018-12-04T09:32:39.731Z,3.87
2018-12-04T09:35:07.123Z,2.97
2018-12-04T09:37:34.755Z,3.87
2018-12-04T09:40:02.231Z,3.80
2018-12-04T09:42:29.756Z,2.30
2018-12-04T09:44:57.184Z,1.57
2018-12-04T09:47:24.638Z,5.03
2018-12-04T09:49:52.005Z,4.10
2018-12-04T09:52:20.338Z,3.73
2018-12-04T09:54:47.879Z,2.90
2018-12-04T09:57:15.247Z,4.77
2018-12-04T09:59:42.618Z,4.63
2018-12-04T10:02:10.002Z,2.37
2018-12-04T10:04:37.406Z,3.83
2018-12-04T10:07:04.893Z,1.30
2018-12-04T10:09:32.277Z,2.97
2018-12-04T10:11:59.600Z,2.73
2018-12-04T10:14:26.997Z,4.30
2018-12-04T10:16:54.351Z,7.93
2018-12-04T10:19:21.870Z,2.53
2018-12-04T10:21:49.231Z,3.03
2018-12-04T10:24:17.052Z,1.87
2018-12-04T10:26:46.544Z,3.33
2018-12-04T10:29:13.874Z,1.63
2018-12-04T10:31:41.308Z,1.20
2018-12-04T10:34:08.680Z,4.87
2018-12-04T10:36:36.066Z,1.40
2018-12-04T10:39:05.506Z,2.33
2018-12-04T10:43:02.123Z,4.00
2018-12-04T10:45:29.479Z,2.27
2018-12-04T10:47:56.870Z,3.23
2018-12-04T10:50:24.389Z,3.37
2018-12-04T10:52:51.754Z,2.90
2018-12-04T10:55:19.159Z,1.93
2018-12-04T10:57:46.522Z,2.97
2018-12-04T11:00:19.280Z,2.30
2018-12-04T11:02:49.447Z,4.43
2018-12-04T11:05:16.874Z,2.40
2018-12-04T11:07:44.227Z,2.37
2018-12-04T11:10:11.588Z,2.00
2018-12-04T11:12:39.151Z,1.40
2018-12-04T11:15:06.790Z,0.87
2018-12-04T11:17:34.170Z,2.47
2018-12-04T11:20:01.659Z,2.23
2018-12-04T11:22:29.038Z,1.57
2018-12-04T11:24:56.398Z,3.33
2018-12-04T11:27:23.788Z,3.03
2018-12-04T11:29:51.142Z,0.87
2018-12-04T11:32:18.582Z,3.77
2018-12-04T11:34:46.702Z,2.07
2018-12-04T11:37:14.035Z,2.07
2018-12-04T11:39:41.623Z,2.50
2018-12-04T11:42:10.567Z,1.10
2018-12-04T11:44:38.182Z,1.57
2018-12-04T11:47:05.859Z,2.00
2018-12-04T11:49:33.266Z,5.10
2018-12-04T11:52:00.626Z,2.63
2018-12-04T11:54:28.310Z,2.40
2018-12-04T11:56:55.686Z,2.27
2018-12-04T11:59:23.164Z,2.67
2018-12-04T12:01:50.614Z,4.20
2018-12-04T12:04:18.029Z,3.23
2018-12-04T12:06:45.431Z,2.23
2018-12-04T12:09:12.773Z,2.63
2018-12-04T12:11:40.398Z,3.47
2018-12-04T12:14:07.847Z,2.70
2018-12-04T12:16:35.641Z,2.77
2018-12-04T12:19:02.987Z,2.47
2018-12-04T12:21:30.402Z,2.03
2018-12-04T12:23:57.774Z,1.90
2018-12-04T12:26:25.109Z,2.17
2018-12-04T12:28:52.483Z,5.53
2018-12-04T12:31:19.838Z,3.27
2018-12-04T12:33:47.230Z,4.27
2018-12-04T12:36:14.675Z,2.50
2018-12-04T12:38:42.141Z,1.70
2018-12-04T12:41:09.563Z,2.83
2018-12-04T12:43:36.927Z,1.40
2018-12-04T12:46:04.292Z,1.20
2018-12-04T12:48:31.713Z,0.80
2018-12-04T12:50:59.057Z,1.57
2018-12-04T12:53:27.168Z,1.83
2018-12-04T12:55:54.562Z,1.60
2018-12-04T12:58:22.051Z,1.73
2018-12-04T13:00:49.425Z,1.57
2018-12-04T13:03:16.795Z,1.00
2018-12-04T13:05:44.253Z,2.63
2018-12-04T13:08:11.612Z,1.60
2018-12-04T13:10:39.099Z,2.13
2018-12-04T13:13:06.493Z,1.90
2018-12-04T13:15:34.708Z,1.13
2018-12-04T13:18:02.094Z,2.30
2018-12-04T13:20:29.591Z,0.70
2018-12-04T13:22:56.930Z,1.23
2018-12-04T13:25:24.417Z,0.60
2018-12-04T13:27:52.019Z,0.80
2018-12-04T13:30:19.398Z,0.73
2018-12-04T13:32:46.786Z,0.60
2018-12-04T13:35:14.122Z,0.40
2018-12-04T13:37:41.631Z,0.50
2018-12-04T13:40:09.127Z,0.67
2018-12-04T13:42:36.662Z,0.53
2018-12-04T13:45:04.545Z,2.20
2018-12-04T13:47:32.059Z,0.50
2018-12-04T13:49:59.481Z,0.60
2018-12-04T13:52:26.903Z,1.27
2018-12-04T13:54:54.456Z,1.07
2018-12-04T13:57:21.865Z,1.03
2018-12-04T13:59:49.357Z,0.90
2018-12-04T14:02:16.726Z,1.07
2018-12-04T14:04:44.151Z,1.17
2018-12-04T14:07:12.315Z,1.70
2018-12-04T14:09:42.401Z,1.03
2018-12-04T14:12:10.086Z,2.13
2018-12-04T14:14:37.532Z,1.70
2018-12-04T14:17:04.970Z,0.60
2018-12-04T14:19:33.244Z,0.77
2018-12-04T14:22:00.739Z,1.90
2018-12-04T14:24:28.188Z,1.50
2018-12-04T14:26:55.674Z,2.00
2018-12-04T14:29:23.510Z,0.80
2018-12-04T14:31:51.004Z,1.47
2018-12-04T14:34:18.370Z,0.70
2018-12-04T14:37:04.330Z,1.50
2018-12-04T14:39:36.422Z,0.80
2018-12-04T14:42:03.891Z,1.03
2018-12-04T14:44:31.380Z,1.30
2018-12-04T14:46:58.786Z,0.60
2018-12-04T14:49:26.318Z,0.90
2018-12-04T14:51:53.850Z,2.13
2018-12-04T14:54:21.262Z,0.80
2018-12-04T14:56:48.627Z,0.60
2018-12-04T14:59:16.221Z,0.70
2018-12-04T15:01:43.630Z,1.20
2018-12-04T15:04:11.147Z,2.13
2018-12-04T15:06:38.731Z,2.67
2018-12-04T15:09:06.743Z,2.50
2018-12-04T15:11:34.130Z,0.60
2018-12-04T15:14:01.496Z,0.87
2018-12-04T15:16:28.902Z,0.60
2018-12-04T15:18:56.354Z,0.70
2018-12-04T15:21:24.647Z,0.80
2018-12-04T15:23:52.081Z,0.77
2018-12-04T15:26:19.529Z,0.70
2018-12-04T15:28:46.937Z,1.60
2018-12-04T15:31:14.347Z,0.50
2018-12-04T15:33:42.426Z,0.70
2018-12-04T15:36:09.840Z,1.57
2018-12-04T15:38:37.265Z,0.73
2018-12-04T15:41:04.648Z,0.63
2018-12-04T15:43:32.054Z,0.40
2018-12-04T15:46:00.426Z,0.50
2018-12-04T15:48:28.015Z,0.60
2018-12-04T15:50:59.833Z,0.90
2018-12-04T15:53:24.877Z,1.03
2018-12-04T15:55:54.792Z,0.93
2018-12-04T15:58:22.263Z,0.80
2018-12-04T16:00:49.756Z,0.50
2018-12-04T16:03:17.221Z,0.50
2018-12-04T16:05:45.167Z,0.53
2018-12-04T16:08:12.650Z,0.80
2018-12-04T16:10:40.114Z,0.70
2018-12-04T16:13:07.515Z,0.67
2018-12-04T16:15:34.897Z,0.70
2018-12-04T16:18:03.224Z,0.87
2018-12-04T16:20:30.563Z,0.90
2018-12-04T16:22:58.114Z,1.60
2018-12-04T16:25:25.632Z,2.20
2018-12-04T16:28:03.992Z,2.33
2018-12-04T16:30:31.427Z,1.43
2018-12-04T16:32:58.783Z,6.47
2018-12-04T16:35:26.142Z,6.03
2018-12-04T16:37:53.497Z,1.97
2018-12-04T16:40:21.088Z,5.27
2018-12-04T16:42:48.509Z,4.00
2018-12-04T16:45:15.907Z,1.03
2018-12-04T16:47:43.290Z,1.90
2018-12-04T16:50:10.692Z,2.00
2018-12-04T16:52:38.109Z,0.90
2018-12-04T16:55:06.172Z,0.90
2018-12-04T16:57:33.563Z,0.90
2018-12-04T17:00:00.915Z,1.33
2018-12-04T17:02:28.334Z,1.00
2018-12-04T17:04:55.996Z,0.90
2018-12-04T17:07:23.405Z,1.63
2018-12-04T17:09:50.859Z,1.27
2018-12-04T17:12:18.234Z,1.40
2018-12-04T17:14:45.657Z,1.00
2018-12-04T17:17:13.174Z,1.80
2018-12-04T17:19:40.531Z,2.13
2018-12-04T17:22:08.540Z,2.53
2018-12-04T17:24:36.010Z,0.90
2018-12-04T17:27:03.463Z,1.30
2018-12-04T17:29:30.846Z,0.90
2018-12-04T17:31:58.372Z,0.80
2018-12-04T17:34:25.886Z,0.90
2018-12-04T17:36:53.391Z,0.70
2018-12-04T17:39:20.813Z,0.70
2018-12-04T17:41:48.211Z,0.67
2018-12-04T17:44:15.604Z,0.70
2018-12-04T17:46:43.041Z,0.60
2018-12-04T17:49:10.441Z,0.97
2018-12-04T17:51:37.817Z,1.10
2018-12-04T17:54:05.368Z,1.70
2018-12-04T17:56:32.817Z,1.30
2018-12-04T17:59:00.275Z,0.63
2018-12-04T18:01:27.683Z,0.60
2018-12-04T18:03:55.152Z,0.27
2018-12-04T18:06:22.542Z,0.60
2018-12-04T18:08:50.135Z,0.40
2018-12-04T18:11:17.595Z,0.50
2018-12-04T18:13:45.008Z,0.60
2018-12-04T18:16:12.367Z,0.63
2018-12-04T18:18:39.760Z,0.40
2018-12-04T18:21:07.123Z,0.37
2018-12-04T18:23:34.633Z,0.33
2018-12-04T18:26:02.049Z,0.43
2018-12-04T18:28:29.505Z,0.50
2018-12-04T18:30:56.895Z,0.70
2018-12-04T18:33:24.296Z,1.00
2018-12-04T18:35:51.741Z,0.90
2018-12-04T18:38:19.095Z,0.57
2018-12-04T18:40:46.532Z,0.30
2018-12-04T18:43:13.919Z,0.40
2018-12-04T18:45:41.403Z,0.37
2018-12-04T18:48:08.807Z,0.33
2018-12-04T18:50:36.489Z,0.47
2018-12-04T18:53:03.907Z,0.50
2018-12-04T18:55:31.891Z,0.30
2018-12-04T18:57:59.334Z,0.20
2018-12-04T19:00:26.750Z,0.33
2018-12-04T19:02:55.740Z,0.57
2018-12-04T19:05:23.326Z,1.30
2018-12-04T19:07:50.768Z,0.30
2018-12-04T19:10:18.330Z,0.30
2018-12-04T19:12:45.836Z,0.40
2018-12-04T19:15:13.811Z,0.30
2018-12-04T19:17:41.314Z,0.20
2018-12-04T19:20:08.958Z,0.30
2018-12-04T19:22:36.474Z,0.30
2018-12-04T19:25:04.382Z,0.20
2018-12-04T19:27:31.936Z,0.23
2018-12-04T19:29:59.373Z,0.20
2018-12-04T19:32:26.818Z,0.13
2018-12-04T19:34:54.433Z,0.20
2018-12-04T19:37:21.850Z,0.27
2018-12-04T19:39:49.339Z,0.33
2018-12-04T19:42:16.691Z,0.40
2018-12-04T19:44:44.111Z,0.50
2018-12-04T19:48:40.734Z,0.40
2018-12-04T19:51:08.137Z,1.13
2018-12-04T19:53:36.427Z,0.70
2018-12-04T19:56:03.815Z,0.40
2018-12-04T19:58:31.171Z,0.30
2018-12-04T20:00:58.560Z,0.30
2018-12-04T20:03:26.003Z,0.50
2018-12-04T20:05:53.407Z,0.67
2018-12-04T20:08:20.805Z,0.63
2018-12-04T20:10:48.183Z,1.53
2018-12-04T20:13:15.582Z,0.90
2018-12-04T20:15:42.978Z,0.77
2018-12-04T20:18:10.387Z,0.97
2018-12-04T20:20:37.865Z,0.67
2018-12-04T20:23:05.337Z,0.53
2018-12-04T20:25:32.853Z,1.60
2018-12-04T20:28:00.248Z,1.47
2018-12-04T20:30:27.699Z,1.60
2018-12-04T20:32:59.827Z,0.50
2018-12-04T20:35:24.641Z,1.03
2018-12-04T20:37:52.067Z,1.50
2018-12-04T20:40:19.578Z,1.57
2018-12-04T20:42:46.951Z,0.97
2018-12-04T20:45:14.368Z,4.00
2018-12-04T20:52:17.156Z,1.57
2018-12-04T20:54:44.614Z,1.60
2018-12-04T20:57:12.137Z,2.53
2018-12-04T20:59:39.762Z,0.73
2018-12-04T21:02:07.214Z,1.90
2018-12-04T21:04:34.594Z,1.53
2018-12-04T21:07:01.996Z,1.00
2018-12-04T21:09:29.492Z,0.67
2018-12-04T21:11:56.958Z,0.67
2018-12-04T21:14:24.418Z,0.93
2018-12-04T21:16:51.988Z,0.60
2018-12-04T21:19:19.490Z,0.77
2018-12-04T21:21:46.876Z,0.50
2018-12-04T21:24:14.354Z,1.20
2018-12-04T21:26:41.766Z,0.73
2018-12-04T21:29:14.689Z,0.40
2018-12-04T21:31:47.386Z,0.93
2018-12-04T21:35:21.246Z,0.70
2018-12-04T21:37:53.876Z,0.50
2018-12-04T21:41:24.908Z,1.13
2018-12-04T21:43:57.516Z,1.73
2018-12-04T21:46:30.162Z,0.70
2018-12-04T21:48:57.547Z,0.50
2018-12-04T21:51:24.991Z,0.40
2018-12-04T21:53:52.380Z,0.70
2018-12-04T21:56:19.781Z,0.50
2018-12-04T21:58:47.178Z,0.77
2018-12-04T22:01:14.593Z,0.50
2018-12-04T22:03:42.011Z,2.47
2018-12-04T22:06:09.425Z,0.50
2018-12-04T22:08:36.840Z,0.53
2018-12-04T22:11:04.338Z,0.50
2018-12-04T22:13:31.757Z,0.53
2018-12-04T22:15:59.226Z,2.43
2018-12-04T22:18:26.917Z,0.97
2018-12-04T22:20:54.326Z,0.67
2018-12-04T22:23:21.812Z,1.13
2018-12-04T22:25:49.537Z,0.50
2018-12-04T22:28:16.952Z,1.33
2018-12-04T22:30:44.364Z,0.60
2018-12-04T22:33:11.834Z,1.03
2018-12-04T22:35:39.399Z,0.80
2018-12-04T22:38:06.774Z,1.17
2018-12-04T22:40:34.178Z,0.43
2018-12-04T22:43:01.702Z,0.43
2018-12-04T22:45:29.240Z,0.30
2018-12-04T22:47:56.727Z,0.40
2018-12-04T22:50:24.132Z,0.37
2018-12-04T22:52:51.566Z,0.40
2018-12-04T22:55:19.163Z,0.40
2018-12-04T22:57:46.524Z,0.50
2018-12-04T23:00:35.734Z,0.93
2018-12-04T23:03:03.219Z,0.30
2018-12-04T23:05:30.890Z,0.40
2018-12-04T23:07:58.288Z,0.73
2018-12-04T23:10:25.632Z,0.43
2018-12-04T23:12:52.982Z,0.20
2018-12-04T23:15:21.671Z,1.57
2018-12-04T23:17:49.345Z,0.40
2018-12-04T23:20:16.746Z,0.20
2018-12-04T23:22:44.547Z,0.53
2018-12-04T23:25:11.912Z,0.40
2018-12-04T23:27:39.292Z,0.30
2018-12-04T23:30:06.959Z,1.70
2018-12-04T23:32:34.340Z,0.93
2018-12-04T23:35:01.694Z,0.47
2018-12-04T23:37:29.148Z,1.07
2018-12-04T23:39:56.612Z,0.40
2018-12-04T23:42:23.988Z,0.47
2018-12-04T23:44:51.368Z,0.40
2018-12-04T23:47:18.734Z,0.40
2018-12-04T23:49:46.114Z,0.43
2018-12-04T23:52:13.479Z,0.20
2018-12-04T23:54:40.868Z,0.67
2018-12-04T23:57:08.221Z,0.30
2018-12-04T23:59:35.572Z,0.73
